Time;durP1;ratioP1;P1;durP2;ratioP2;P2;SDS_P1;SDS_P2;PMS_P1;PMS_P2;Temp;Humidity;BMP_temperature;BMP_pressure;BME280_temperature;BME280_humidity;BME280_pressure;Samples;Min_cycle;Max_cycle;Signal;HPM_P1;HPM_P2
2022/01/09 00:01:09;;;;;;;14.63;11.88;;;4.50;99.90;;;;;;4998946;28;20054;-39
2022/01/09 00:03:39;;;;;;;14.02;11.35;;;4.50;99.90;;;;;;4995199;28;20125;-40
2022/01/09 00:06:06;;;;;;;14.13;11.40;;;4.50;99.90;;;;;;5002828;28;20046;-40
2022/01/09 00:08:33;;;;;;;16.08;12.27;;;4.50;99.90;;;;;;5006922;28;20566;-39
2022/01/09 00:11:00;;;;;;;18.85;12.10;;;4.50;99.90;;;;;;4995178;28;20054;-39
2022/01/09 00:13:27;;;;;;;13.43;11.63;;;4.50;99.90;;;;;;4991640;28;20390;-40
2022/01/09 00:15:54;;;;;;;13.95;11.30;;;4.50;99.90;;;;;;4986782;28;20048;-39
2022/01/09 00:18:21;;;;;;;14.50;11.07;;;4.50;99.90;;;;;;4991353;28;20133;-39
2022/01/09 00:20:49;;;;;;;11.85;10.00;;;4.50;99.90;;;;;;4994577;28;20049;-39
2022/01/09 00:23:16;;;;;;;12.85;9.30;;;4.50;99.90;;;;;;4992076;28;20331;-39
2022/01/09 00:25:43;;;;;;;17.60;11.18;;;4.50;99.90;;;;;;4995371;28;20107;-39
2022/01/09 00:28:10;;;;;;;13.02;10.63;;;4.50;99.90;;;;;;4995596;28;20061;-39
2022/01/09 00:30:37;;;;;;;13.95;11.68;;;4.50;99.90;;;;;;5006157;28;20054;-39
2022/01/09 00:33:05;;;;;;;14.50;12.02;;;4.60;99.90;;;;;;4991471;28;20478;-39
2022/01/09 00:35:32;;;;;;;16.77;13.20;;;4.60;99.90;;;;;;4992391;28;20104;-39
2022/01/09 00:38:00;;;;;;;16.55;13.10;;;4.60;99.90;;;;;;4992558;28;20133;-40
2022/01/09 00:40:30;;;;;;;13.57;11.23;;;4.60;99.90;;;;;;4991654;28;20116;-39
2022/01/09 00:42:57;;;;;;;13.25;11.40;;;4.50;99.90;;;;;;4991641;28;20104;-39
2022/01/09 00:45:27;;;;;;;15.90;11.65;;;4.60;99.90;;;;;;5007420;28;20042;-39
2022/01/09 00:47:56;;;;;;;17.65;13.02;;;4.60;99.90;;;;;;4994881;28;20554;-40
2022/01/09 00:50:23;;;;;;;15.48;12.45;;;4.60;99.90;;;;;;4991943;28;20450;-39
2022/01/09 00:52:50;;;;;;;15.43;12.15;;;4.60;99.90;;;;;;4993631;28;20082;-39
2022/01/09 00:55:19;;;;;;;18.38;13.00;;;4.60;99.90;;;;;;4993566;28;20054;-39
2022/01/09 00:57:48;;;;;;;16.45;13.10;;;4.60;99.90;;;;;;5000388;28;20050;-40
2022/01/09 01:00:15;;;;;;;16.38;12.70;;;4.60;99.90;;;;;;5002900;28;20137;-39
2022/01/09 01:02:42;;;;;;;16.85;13.27;;;4.50;99.90;;;;;;5000900;28;20042;-40
2022/01/09 01:05:10;;;;;;;17.90;13.80;;;4.60;99.90;;;;;;4996999;28;20058;-40
2022/01/09 01:07:37;;;;;;;19.02;14.40;;;4.60;99.90;;;;;;4993018;28;20080;-40
2022/01/09 01:10:04;;;;;;;15.73;12.32;;;4.60;99.90;;;;;;4993474;28;20089;-39
2022/01/09 01:12:33;;;;;;;20.05;13.73;;;4.60;99.90;;;;;;5000303;28;20494;-40
2022/01/09 01:15:00;;;;;;;17.38;13.15;;;4.60;99.90;;;;;;5009805;28;20156;-39
2022/01/09 01:17:27;;;;;;;18.73;14.45;;;4.60;99.90;;;;;;4996603;28;20081;-39
2022/01/09 01:19:54;;;;;;;17.80;13.57;;;4.60;99.90;;;;;;4998979;28;20105;-40
2022/01/09 01:22:21;;;;;;;19.25;14.32;;;4.60;99.90;;;;;;4997456;28;20070;-40
2022/01/09 01:24:48;;;;;;;21.92;15.43;;;4.60;99.90;;;;;;4994014;28;20054;-40
2022/01/09 01:27:15;;;;;;;19.48;15.15;;;4.60;99.90;;;;;;4996424;28;20054;-40
2022/01/09 01:29:43;;;;;;;24.83;16.15;;;4.60;99.90;;;;;;5003551;28;20058;-42
2022/01/09 01:32:10;;;;;;;16.42;13.15;;;4.60;99.90;;;;;;4995567;28;20054;-40
2022/01/09 01:34:37;;;;;;;17.67;13.75;;;4.60;99.90;;;;;;4991159;28;20134;-40
2022/01/09 01:37:04;;;;;;;16.25;13.05;;;4.70;99.90;;;;;;4991432;28;20518;-40
2022/01/09 01:39:31;;;;;;;16.05;12.68;;;4.70;99.90;;;;;;4990339;28;20054;-40
2022/01/09 01:41:58;;;;;;;15.30;11.00;;;4.70;99.90;;;;;;4998507;28;20533;-40
2022/01/09 01:44:25;;;;;;;15.13;10.98;;;4.70;99.90;;;;;;4999130;28;20054;-39
2022/01/09 01:46:54;;;;;;;16.92;12.70;;;4.70;99.90;;;;;;4992088;28;20129;-40
2022/01/09 01:49:21;;;;;;;17.67;12.13;;;4.70;99.90;;;;;;4999011;28;20146;-40
2022/01/09 01:51:48;;;;;;;18.38;12.35;;;4.80;99.90;;;;;;5004130;28;20514;-39
2022/01/09 01:54:15;;;;;;;13.60;9.98;;;4.80;99.90;;;;;;4992617;28;20089;-39
2022/01/09 01:56:42;;;;;;;12.35;10.15;;;4.80;99.90;;;;;;4991249;28;20173;-39
2022/01/09 01:59:09;;;;;;;15.68;10.88;;;4.80;99.90;;;;;;4992427;28;20058;-39
2022/01/09 02:01:36;;;;;;;13.93;10.43;;;4.80;99.90;;;;;;4987136;28;20141;-40
2022/01/09 02:04:06;;;;;;;15.30;11.15;;;4.90;99.90;;;;;;4993741;28;20050;-40
2022/01/09 02:06:33;;;;;;;15.88;10.90;;;4.80;99.90;;;;;;4989092;28;20058;-40
2022/01/09 02:09:00;;;;;;;15.55;11.00;;;4.90;99.90;;;;;;4974737;28;20055;-40
2022/01/09 02:11:27;;;;;;;12.70;9.57;;;4.90;99.90;;;;;;4988362;28;20082;-40
2022/01/09 02:13:54;;;;;;;11.95;9.27;;;4.90;99.90;;;;;;4991086;28;20055;-40
2022/01/09 02:16:22;;;;;;;14.63;11.10;;;4.90;99.90;;;;;;4990498;28;20162;-40
2022/01/09 02:18:49;;;;;;;12.77;9.05;;;4.90;99.90;;;;;;4992321;28;20085;-40
2022/01/09 02:21:18;;;;;;;14.95;10.50;;;4.90;99.90;;;;;;4991208;28;20058;-40
2022/01/09 02:23:46;;;;;;;13.32;9.77;;;4.90;99.90;;;;;;4991609;28;20093;-39
2022/01/09 02:26:16;;;;;;;15.02;10.05;;;4.90;99.90;;;;;;4992115;28;20046;-39
2022/01/09 02:28:43;;;;;;;12.88;9.90;;;4.90;99.90;;;;;;4989551;28;20133;-39
2022/01/09 02:31:10;;;;;;;17.20;10.88;;;4.90;99.90;;;;;;4992415;28;20108;-39
2022/01/09 02:33:37;;;;;;;10.75;8.82;;;4.90;99.90;;;;;;4991929;28;20133;-39
2022/01/09 02:36:04;;;;;;;13.52;9.77;;;5.00;99.90;;;;;;4991087;28;20146;-39
2022/01/09 02:38:33;;;;;;;11.32;9.05;;;5.00;99.90;;;;;;4992267;28;20050;-39
2022/01/09 02:41:00;;;;;;;12.77;8.55;;;5.00;99.90;;;;;;4993806;28;20562;-40
2022/01/09 02:43:27;;;;;;;15.38;9.48;;;5.00;99.90;;;;;;4994357;28;20046;-39
2022/01/09 02:46:04;;;;;;;12.77;8.43;;;5.10;99.90;;;;;;4994883;28;20530;-40
2022/01/09 02:48:34;;;;;;;14.23;8.82;;;5.10;99.90;;;;;;4994693;28;20097;-39
2022/01/09 02:51:05;;;;;;;15.77;8.25;;;5.10;99.90;;;;;;4994547;28;20046;-39
2022/01/09 02:53:36;;;;;;;11.55;6.30;;;5.10;99.90;;;;;;4995500;28;20525;-39
2022/01/09 02:56:03;;;;;;;22.30;7.28;;;5.20;99.90;;;;;;4994856;28;20046;-39
2022/01/09 02:58:30;;;;;;;19.15;5.95;;;5.20;99.90;;;;;;4995908;28;20062;-39
2022/01/09 03:00:57;;;;;;;25.65;5.50;;;5.30;99.90;;;;;;4993051;28;20046;-39
2022/01/09 03:03:24;;;;;;;24.48;5.50;;;5.40;99.90;;;;;;4994140;28;20454;-40
2022/01/09 03:05:51;;;;;;;34.22;5.00;;;5.40;99.90;;;;;;4994056;28;20085;-40
2022/01/09 03:08:18;;;;;;;28.92;4.88;;;5.40;99.90;;;;;;4994810;28;20474;-40
2022/01/09 03:10:46;;;;;;;29.65;4.38;;;5.50;99.90;;;;;;4993915;28;20042;-43
2022/01/09 03:13:13;;;;;;;20.70;4.13;;;5.50;99.90;;;;;;4995338;28;20537;-40
2022/01/09 03:15:40;;;;;;;29.75;4.10;;;5.50;99.90;;;;;;4992695;28;20085;-41
2022/01/09 03:18:07;;;;;;;36.03;5.15;;;5.60;99.90;;;;;;4994837;28;20144;-42
2022/01/09 03:20:34;;;;;;;29.63;4.88;;;5.60;99.90;;;;;;4994043;28;20058;-43
2022/01/09 03:23:01;;;;;;;33.00;5.43;;;5.60;99.90;;;;;;4994444;28;20523;-42
2022/01/09 03:25:28;;;;;;;40.00;5.63;;;5.70;99.90;;;;;;4993593;28;20096;-40
2022/01/09 03:27:57;;;;;;;43.33;5.20;;;5.70;99.90;;;;;;4994913;28;20050;-43
2022/01/09 03:30:24;;;;;;;49.67;6.00;;;5.80;99.90;;;;;;4993915;28;20525;-45
2022/01/09 03:32:52;;;;;;;50.13;5.63;;;5.80;99.90;;;;;;4995218;28;20393;-43
2022/01/09 03:35:20;;;;;;;56.25;6.32;;;5.90;99.90;;;;;;4994178;28;20386;-43
2022/01/09 03:37:48;;;;;;;68.88;6.47;;;5.90;99.90;;;;;;4994410;28;20042;-44
2022/01/09 03:40:16;;;;;;;61.63;6.75;;;5.90;99.90;;;;;;4994835;28;20455;-42
2022/01/09 03:42:43;;;;;;;57.67;6.70;;;5.90;99.90;;;;;;4993630;28;20069;-42
2022/01/09 03:45:12;;;;;;;65.90;6.30;;;6.00;99.90;;;;;;4994456;28;20054;-44
2022/01/09 03:47:39;;;;;;;59.50;6.45;;;6.00;99.90;;;;;;4995044;28;20446;-44
2022/01/09 03:50:08;;;;;;;67.43;7.38;;;6.10;99.90;;;;;;4994628;28;20058;-43
2022/01/09 03:52:37;;;;;;;53.83;6.10;;;6.10;99.90;;;;;;4993297;28;20085;-43
2022/01/09 03:55:05;;;;;;;61.83;6.80;;;6.10;99.90;;;;;;4994204;28;20561;-44
2022/01/09 03:57:32;;;;;;;76.28;7.03;;;6.10;99.90;;;;;;4990355;28;20057;-44
2022/01/09 03:59:59;;;;;;;58.05;7.45;;;6.10;99.90;;;;;;4992984;28;20052;-44
2022/01/09 04:02:27;;;;;;;62.75;7.35;;;6.10;99.90;;;;;;4992963;28;20047;-45
2022/01/09 04:04:54;;;;;;;58.72;6.57;;;6.10;99.90;;;;;;4993311;28;20054;-43
2022/01/09 04:07:21;;;;;;;71.38;7.10;;;6.10;99.90;;;;;;4987242;28;20170;-44
2022/01/09 04:09:48;;;;;;;64.57;6.85;;;6.10;99.90;;;;;;4983375;28;20108;-46
2022/01/09 04:12:18;;;;;;;54.15;6.50;;;6.10;99.90;;;;;;4993297;28;20483;-42
2022/01/09 04:14:46;;;;;;;56.15;6.97;;;6.10;99.90;;;;;;4993117;28;20051;-45
2022/01/09 04:17:18;;;;;;;50.63;6.55;;;6.10;99.90;;;;;;4993894;28;20136;-44
2022/01/09 04:19:46;;;;;;;45.30;5.85;;;6.10;99.90;;;;;;4994201;28;20058;-44
2022/01/09 04:22:13;;;;;;;55.30;6.85;;;6.10;99.90;;;;;;4993303;28;20461;-42
2022/01/09 04:24:40;;;;;;;57.08;6.10;;;6.10;99.90;;;;;;4992412;28;20077;-46
2022/01/09 04:27:07;;;;;;;58.08;6.65;;;6.10;99.90;;;;;;4992819;28;20137;-45
2022/01/09 04:29:34;;;;;;;49.28;6.30;;;6.10;99.90;;;;;;4994195;28;20052;-44
2022/01/09 04:32:01;;;;;;;53.03;6.20;;;6.10;99.90;;;;;;4993180;28;20042;-44
2022/01/09 04:34:28;;;;;;;52.40;7.05;;;6.10;99.90;;;;;;4993658;28;20061;-45
2022/01/09 04:36:59;;;;;;;45.00;5.00;;;6.10;99.90;;;;;;4992942;28;20059;-44
2022/01/09 04:39:26;;;;;;;49.47;6.50;;;6.10;99.90;;;;;;4993171;28;20499;-42
2022/01/09 04:41:54;;;;;;;52.92;5.55;;;6.10;99.90;;;;;;4993964;28;20100;-45
2022/01/09 04:44:20;;;;;;;47.97;5.68;;;6.10;99.90;;;;;;4992033;28;20092;-44
2022/01/09 04:46:54;;;;;;;50.55;5.60;;;6.10;99.90;;;;;;4988481;28;20082;-43
2022/01/09 04:49:24;;;;;;;53.10;5.63;;;6.10;99.90;;;;;;4992475;28;20056;-42
2022/01/09 04:51:51;;;;;;;49.63;6.07;;;6.10;99.90;;;;;;4993420;28;20431;-44
2022/01/09 04:54:20;;;;;;;45.58;5.55;;;6.10;99.90;;;;;;4994445;28;20055;-44
2022/01/09 04:56:47;;;;;;;42.80;4.88;;;6.10;99.90;;;;;;4991579;28;20089;-42
2022/01/09 04:59:14;;;;;;;39.20;5.55;;;6.10;99.90;;;;;;4991784;28;20042;-44
2022/01/09 05:01:41;;;;;;;47.08;5.60;;;6.10;99.90;;;;;;4993196;28;20050;-44
2022/01/09 05:04:08;;;;;;;38.40;5.03;;;6.10;99.90;;;;;;4991418;28;20093;-42
2022/01/09 05:06:35;;;;;;;37.05;4.38;;;6.10;99.90;;;;;;4993121;28;20043;-44
2022/01/09 05:09:02;;;;;;;48.72;5.15;;;6.10;99.90;;;;;;4993387;28;20180;-44
2022/01/09 05:11:30;;;;;;;39.78;5.78;;;6.10;99.90;;;;;;4991369;28;20085;-44
2022/01/09 05:13:57;;;;;;;37.33;5.07;;;6.00;99.90;;;;;;4992260;28;20058;-45
2022/01/09 05:16:24;;;;;;;37.63;4.32;;;6.10;99.90;;;;;;4993137;28;20055;-45
2022/01/09 05:18:54;;;;;;;40.72;5.97;;;6.10;99.90;;;;;;4991602;28;20089;-44
2022/01/09 05:21:21;;;;;;;32.40;4.22;;;6.00;99.90;;;;;;4992321;28;20058;-45
2022/01/09 05:23:49;;;;;;;45.63;6.82;;;6.00;99.90;;;;;;4992683;28;20504;-45
2022/01/09 05:26:16;;;;;;;42.83;5.47;;;6.00;99.90;;;;;;4993168;28;20372;-43
2022/01/09 05:28:44;;;;;;;31.45;3.72;;;6.00;99.90;;;;;;4993186;28;20053;-44
2022/01/09 05:31:11;;;;;;;34.63;4.30;;;6.00;99.90;;;;;;4992656;28;20080;-44
2022/01/09 05:33:38;;;;;;;25.40;3.58;;;5.90;99.90;;;;;;4991740;28;20046;-45
2022/01/09 05:36:05;;;;;;;30.23;4.05;;;5.90;99.90;;;;;;4993030;28;20125;-44
2022/01/09 05:38:32;;;;;;;28.77;3.95;;;5.90;99.90;;;;;;4991720;28;20466;-45
2022/01/09 05:40:59;;;;;;;27.10;3.30;;;5.90;99.90;;;;;;4991393;28;20177;-45
2022/01/09 05:43:26;;;;;;;37.88;3.88;;;5.90;99.90;;;;;;4992357;28;20097;-44
2022/01/09 05:45:55;;;;;;;22.00;3.92;;;5.90;99.90;;;;;;4991312;28;20081;-43
2022/01/09 05:48:22;;;;;;;33.40;3.53;;;5.90;99.90;;;;;;4992434;28;20050;-44
2022/01/09 05:50:49;;;;;;;35.67;4.50;;;5.80;99.90;;;;;;4992035;28;20057;-42
2022/01/09 05:53:16;;;;;;;30.20;3.85;;;5.80;99.90;;;;;;4992456;28;20479;-45
2022/01/09 05:55:43;;;;;;;35.67;4.60;;;5.80;99.90;;;;;;4992511;28;20086;-45
2022/01/09 05:58:10;;;;;;;34.20;4.53;;;5.80;99.90;;;;;;4990992;28;20050;-47
2022/01/09 06:00:37;;;;;;;24.92;3.63;;;5.80;99.90;;;;;;4992254;28;20085;-42
2022/01/09 06:03:05;;;;;;;26.50;4.15;;;5.80;99.90;;;;;;4992393;28;20410;-44
2022/01/09 06:05:32;;;;;;;35.72;4.47;;;5.80;99.90;;;;;;4991681;28;20046;-46
2022/01/09 06:07:59;;;;;;;28.63;3.53;;;5.80;99.90;;;;;;4982645;28;20494;-44
2022/01/09 06:10:26;;;;;;;32.17;4.32;;;5.80;99.90;;;;;;4985945;28;20053;-45
2022/01/09 06:12:53;;;;;;;25.73;3.90;;;5.70;99.90;;;;;;4991272;28;20380;-45
2022/01/09 06:15:20;;;;;;;36.55;4.68;;;5.70;99.90;;;;;;4992199;28;20081;-46
2022/01/09 06:17:47;;;;;;;25.90;4.18;;;5.70;99.90;;;;;;4994344;28;20050;-42
2022/01/09 06:20:16;;;;;;;29.17;3.63;;;5.70;99.90;;;;;;4995731;28;21449;-46
2022/01/09 06:22:43;;;;;;;28.35;4.53;;;5.70;99.90;;;;;;4977213;28;20051;-43
2022/01/09 06:25:10;;;;;;;37.85;4.63;;;5.70;99.90;;;;;;4985214;28;20096;-43
2022/01/09 06:27:38;;;;;;;46.97;4.22;;;5.70;99.90;;;;;;4995852;28;20483;-42
2022/01/09 06:30:06;;;;;;;39.22;4.72;;;5.70;99.90;;;;;;4994429;28;20469;-45
2022/01/09 06:32:33;;;;;;;31.80;4.07;;;5.70;99.90;;;;;;4995186;28;20077;-45
2022/01/09 06:35:00;;;;;;;28.15;3.95;;;5.70;99.90;;;;;;4994804;28;20077;-45
2022/01/09 06:37:28;;;;;;;33.75;4.28;;;5.70;99.90;;;;;;4993277;28;20082;-44
2022/01/09 06:39:55;;;;;;;31.40;4.40;;;5.70;99.90;;;;;;4995098;28;20050;-45
2022/01/09 06:42:22;;;;;;;37.03;4.28;;;5.70;99.90;;;;;;4994578;28;20074;-44
2022/01/09 06:44:49;;;;;;;31.95;3.58;;;5.70;99.90;;;;;;4993729;28;20053;-44
2022/01/09 06:47:16;;;;;;;35.58;4.55;;;5.70;99.90;;;;;;4994637;28;20117;-44
2022/01/09 06:49:43;;;;;;;38.33;4.60;;;5.70;99.90;;;;;;4995833;28;20045;-45
2022/01/09 06:52:10;;;;;;;29.05;4.20;;;5.70;99.90;;;;;;4991749;28;20093;-44
2022/01/09 06:54:39;;;;;;;27.27;3.28;;;5.60;99.90;;;;;;4995661;28;20068;-44
2022/01/09 06:57:06;;;;;;;27.88;3.60;;;5.60;99.90;;;;;;5000283;28;20081;-44
2022/01/09 06:59:33;;;;;;;32.25;4.28;;;5.60;99.90;;;;;;4995161;28;20050;-44
2022/01/09 07:02:00;;;;;;;30.85;4.05;;;5.60;99.90;;;;;;4993275;28;20050;-43
2022/01/09 07:04:27;;;;;;;29.33;3.90;;;5.50;99.90;;;;;;4993568;28;20082;-45
2022/01/09 07:06:54;;;;;;;25.88;3.45;;;5.50;99.90;;;;;;4995538;28;20049;-44
2022/01/09 07:09:22;;;;;;;27.33;4.32;;;5.50;99.90;;;;;;4994208;28;20062;-44
2022/01/09 07:11:51;;;;;;;27.70;3.40;;;5.40;99.90;;;;;;4993005;28;20050;-44
2022/01/09 07:14:18;;;;;;;21.48;2.85;;;5.40;99.90;;;;;;4994147;28;20136;-42
2022/01/09 07:16:45;;;;;;;27.20;3.40;;;5.40;99.90;;;;;;4992335;28;20042;-44
2022/01/09 07:19:12;;;;;;;27.08;3.20;;;5.40;99.90;;;;;;4992971;28;20134;-44
2022/01/09 07:21:39;;;;;;;21.55;2.95;;;5.30;99.90;;;;;;4994512;28;20129;-44
2022/01/09 07:24:06;;;;;;;16.35;2.67;;;5.30;99.90;;;;;;4995014;28;20052;-44
2022/01/09 07:26:33;;;;;;;24.88;3.78;;;5.30;99.90;;;;;;4994629;28;20081;-43
2022/01/09 07:29:01;;;;;;;21.80;3.35;;;5.30;99.90;;;;;;4993311;28;20472;-44
2022/01/09 07:31:28;;;;;;;17.52;2.50;;;5.30;99.90;;;;;;4987313;28;20137;-44
2022/01/09 07:33:55;;;;;;;19.83;2.83;;;5.30;99.90;;;;;;4993555;28;20567;-44
2022/01/09 07:36:22;;;;;;;17.75;2.90;;;5.20;99.90;;;;;;4993914;28;20078;-43
2022/01/09 07:38:49;;;;;;;22.15;2.28;;;5.20;99.90;;;;;;4992164;28;20573;-43
2022/01/09 07:41:17;;;;;;;20.80;2.45;;;5.20;99.90;;;;;;4994628;28;20046;-42
2022/01/09 07:43:44;;;;;;;19.52;2.33;;;5.20;99.90;;;;;;4994415;28;20398;-44
2022/01/09 07:46:12;;;;;;;19.85;2.97;;;5.20;99.90;;;;;;4993596;28;20046;-43
2022/01/09 07:48:39;;;;;;;12.98;1.75;;;5.20;99.90;;;;;;4992815;28;20072;-44
2022/01/09 07:51:06;;;;;;;14.35;2.08;;;5.10;99.90;;;;;;4992850;28;20085;-42
2022/01/09 07:53:33;;;;;;;14.40;2.13;;;5.10;99.90;;;;;;4994182;28;20089;-42
2022/01/09 07:56:00;;;;;;;13.02;2.08;;;5.10;99.90;;;;;;4993755;28;20051;-43
2022/01/09 07:58:27;;;;;;;19.35;2.85;;;5.10;99.90;;;;;;4991781;28;20097;-43
2022/01/09 08:00:54;;;;;;;14.32;2.22;;;5.10;99.90;;;;;;4993934;28;20137;-44
2022/01/09 08:03:23;;;;;;;17.15;2.30;;;5.10;99.90;;;;;;4992332;28;20085;-44
2022/01/09 08:05:50;;;;;;;17.55;3.00;;;5.10;99.90;;;;;;4993508;28;20089;-43
2022/01/09 08:08:17;;;;;;;14.43;2.42;;;5.00;99.90;;;;;;4993622;28;20078;-42
2022/01/09 08:10:44;;;;;;;19.55;2.92;;;5.00;99.90;;;;;;4992190;28;20056;-43
2022/01/09 08:13:11;;;;;;;14.77;2.72;;;5.00;99.90;;;;;;4993746;28;20054;-44
2022/01/09 08:15:38;;;;;;;20.35;2.78;;;5.00;99.90;;;;;;4994622;28;20054;-43
2022/01/09 08:18:05;;;;;;;18.45;2.63;;;5.00;99.90;;;;;;4993623;28;20470;-45
2022/01/09 08:20:33;;;;;;;16.70;2.42;;;5.00;99.90;;;;;;4991702;28;20054;-43
2022/01/09 08:23:00;;;;;;;11.07;2.30;;;5.00;99.90;;;;;;4991014;28;20060;-43
2022/01/09 08:25:27;;;;;;;23.13;2.42;;;5.00;99.90;;;;;;4990468;28;20054;-44
2022/01/09 08:27:55;;;;;;;23.27;2.65;;;5.00;99.90;;;;;;4989852;28;20407;-41
2022/01/09 08:30:22;;;;;;;17.33;2.25;;;5.00;99.90;;;;;;4992660;28;20056;-44
2022/01/09 08:32:49;;;;;;;14.45;2.40;;;5.00;99.90;;;;;;4994309;28;20060;-44
2022/01/09 08:35:16;;;;;;;11.65;2.67;;;5.10;99.90;;;;;;4992821;28;20057;-44
2022/01/09 08:37:44;;;;;;;20.38;2.72;;;5.10;99.90;;;;;;4989038;28;20101;-46
2022/01/09 08:40:13;;;;;;;16.92;2.28;;;5.10;99.90;;;;;;4991472;28;20046;-43
2022/01/09 08:42:41;;;;;;;16.95;2.30;;;5.10;99.90;;;;;;4992459;28;20096;-44
2022/01/09 08:45:09;;;;;;;15.05;2.72;;;5.10;99.90;;;;;;4992406;28;20050;-45
2022/01/09 08:47:38;;;;;;;17.98;2.60;;;5.10;99.90;;;;;;4988728;28;20054;-45
2022/01/09 08:50:05;;;;;;;15.63;2.22;;;5.10;99.90;;;;;;4991489;28;20058;-47
2022/01/09 08:52:32;;;;;;;25.52;2.58;;;5.10;99.90;;;;;;4992119;28;20129;-45
2022/01/09 08:55:00;;;;;;;18.98;2.63;;;5.10;99.90;;;;;;4992083;28;20108;-47
2022/01/09 08:57:27;;;;;;;19.23;2.95;;;5.20;99.90;;;;;;4990844;28;20100;-45
2022/01/09 08:59:54;;;;;;;19.98;2.60;;;5.10;99.90;;;;;;4992604;28;20046;-43
2022/01/09 09:02:22;;;;;;;14.00;2.40;;;5.10;99.90;;;;;;4982968;28;20050;-44
2022/01/09 09:04:49;;;;;;;22.10;3.60;;;5.20;99.90;;;;;;4987968;28;20053;-44
2022/01/09 09:07:18;;;;;;;20.83;2.50;;;5.20;99.90;;;;;;4993045;28;20085;-45
2022/01/09 09:09:45;;;;;;;13.02;2.00;;;5.20;99.90;;;;;;4990807;28;20050;-47
2022/01/09 09:12:13;;;;;;;16.20;2.35;;;5.20;99.90;;;;;;4992166;28;20402;-42
2022/01/09 09:14:40;;;;;;;17.25;3.03;;;5.20;99.90;;;;;;4992909;28;20050;-46
2022/01/09 09:17:07;;;;;;;23.15;2.75;;;5.20;99.90;;;;;;4989819;28;20082;-47
2022/01/09 09:19:34;;;;;;;22.30;2.85;;;5.30;99.90;;;;;;4991814;28;20052;-43
2022/01/09 09:22:01;;;;;;;17.73;2.17;;;5.20;99.90;;;;;;4989559;28;20387;-47
2022/01/09 09:24:28;;;;;;;20.10;2.85;;;5.30;99.90;;;;;;4991757;28;20056;-45
2022/01/09 09:26:55;;;;;;;16.30;2.72;;;5.30;99.90;;;;;;4991563;28;20042;-43
2022/01/09 09:29:24;;;;;;;19.95;2.67;;;5.30;99.90;;;;;;4991188;28;20060;-46
2022/01/09 09:31:51;;;;;;;18.15;2.60;;;5.30;99.90;;;;;;4992382;28;20096;-47
2022/01/09 09:34:18;;;;;;;16.10;2.33;;;5.30;99.90;;;;;;4990935;28;20085;-44
2022/01/09 09:36:45;;;;;;;13.48;2.25;;;5.40;99.90;;;;;;4991244;28;20077;-45
2022/01/09 09:39:13;;;;;;;17.67;2.58;;;5.40;99.90;;;;;;4991341;28;20045;-43
2022/01/09 09:41:41;;;;;;;17.23;2.45;;;5.30;99.90;;;;;;4989849;28;20141;-44
2022/01/09 09:44:09;;;;;;;17.10;2.75;;;5.40;99.90;;;;;;4991800;28;20570;-45
2022/01/09 09:46:38;;;;;;;13.85;3.03;;;5.40;99.90;;;;;;4989022;28;20117;-45
2022/01/09 09:49:05;;;;;;;21.35;2.38;;;5.40;99.90;;;;;;4984958;28;20507;-46
2022/01/09 09:51:32;;;;;;;15.65;2.78;;;5.40;99.90;;;;;;4994838;28;20131;-44
2022/01/09 09:53:59;;;;;;;15.45;2.05;;;5.40;99.90;;;;;;4993368;28;20078;-44
2022/01/09 09:56:26;;;;;;;14.50;2.50;;;5.40;99.90;;;;;;4991783;28;20057;-44
2022/01/09 09:58:53;;;;;;;15.98;1.95;;;5.40;99.90;;;;;;4992953;28;20141;-44
2022/01/09 10:01:24;;;;;;;13.40;2.30;;;5.50;99.90;;;;;;4991757;28;20113;-46
2022/01/09 10:03:56;;;;;;;24.35;2.83;;;5.50;99.90;;;;;;4993626;28;20401;-45
2022/01/09 10:06:41;;;;;;;11.32;2.20;;;5.50;99.90;;;;;;4992823;28;20057;-44
2022/01/09 10:09:10;;;;;;;16.63;2.10;;;5.50;99.90;;;;;;4992973;28;20116;-43
2022/01/09 10:11:48;;;;;;;12.52;1.98;;;5.50;99.90;;;;;;4993557;28;20129;-43
2022/01/09 10:14:17;;;;;;;12.52;2.08;;;5.50;99.90;;;;;;4991351;28;20088;-43
2022/01/09 10:17:05;;;;;;;8.50;1.55;;;5.50;99.90;;;;;;4991784;28;20454;-44
2022/01/09 10:19:46;;;;;;;14.20;1.90;;;5.50;99.90;;;;;;4995763;28;20065;-44
2022/01/09 10:22:24;;;;;;;14.65;1.95;;;5.50;99.90;;;;;;5006851;28;20086;-44
2022/01/09 10:24:51;;;;;;;7.45;1.33;;;5.50;99.90;;;;;;4994405;28;20046;-45
2022/01/09 10:27:28;;;;;;;9.93;2.75;;;5.60;99.90;;;;;;4993199;28;20056;-45
2022/01/09 10:29:55;;;;;;;10.30;2.15;;;5.60;99.90;;;;;;4995202;28;20057;-47
2022/01/09 10:32:25;;;;;;;9.63;2.95;;;5.60;99.90;;;;;;4995392;28;20058;-45
2022/01/09 10:35:06;;;;;;;11.30;1.70;;;5.60;99.90;;;;;;4991196;28;20074;-44
2022/01/09 10:37:33;;;;;;;13.50;3.20;;;5.60;99.90;;;;;;4992896;28;20080;-45
2022/01/09 10:40:01;;;;;;;11.25;1.95;;;5.60;99.90;;;;;;4988994;28;20042;-44
2022/01/09 10:42:28;;;;;;;6.57;1.70;;;5.60;99.90;;;;;;4991549;28;20049;-46
2022/01/09 10:44:55;;;;;;;8.68;1.70;;;5.70;99.90;;;;;;4994131;28;20173;-45
2022/01/09 10:47:22;;;;;;;8.63;1.23;;;5.70;99.90;;;;;;4991229;28;20050;-42
2022/01/09 10:49:49;;;;;;;10.65;1.77;;;5.70;99.90;;;;;;4990608;28;20157;-43
2022/01/09 10:52:19;;;;;;;7.88;1.58;;;5.70;99.90;;;;;;4990776;28;20055;-45
2022/01/09 10:54:47;;;;;;;18.10;2.50;;;5.80;99.90;;;;;;4989376;28;20487;-45
2022/01/09 10:57:15;;;;;;;11.40;2.35;;;5.80;99.90;;;;;;4988839;28;20116;-44
2022/01/09 10:59:44;;;;;;;10.82;2.00;;;5.90;99.90;;;;;;4990654;28;20584;-42
2022/01/09 11:02:12;;;;;;;10.68;1.75;;;5.90;99.90;;;;;;4985572;28;20046;-45
2022/01/09 11:04:40;;;;;;;15.90;2.58;;;6.00;99.90;;;;;;4982537;28;20046;-40
2022/01/09 11:07:08;;;;;;;9.15;2.38;;;6.00;99.90;;;;;;4979392;28;20057;-42
2022/01/09 11:09:37;;;;;;;12.55;2.53;;;6.00;99.90;;;;;;4990402;28;20042;-42
2022/01/09 11:12:05;;;;;;;16.77;5.45;;;6.10;99.90;;;;;;4986978;28;20055;-44
2022/01/09 11:14:35;;;;;;;23.30;3.88;;;6.10;99.90;;;;;;4997626;28;20068;-44
2022/01/09 11:17:05;;;;;;;15.95;3.80;;;6.20;99.90;;;;;;4986666;28;20050;-43
2022/01/09 11:19:32;;;;;;;8.77;2.67;;;6.30;99.90;;;;;;5001945;28;20061;-43
2022/01/09 11:22:00;;;;;;;9.48;1.58;;;6.40;99.90;;;;;;4985986;28;20054;-43
2022/01/09 11:24:55;;;;;;;12.25;2.20;;;6.40;99.90;;;;;;4985253;28;20454;-42
2022/01/09 11:27:27;;;;;;;15.90;2.60;;;6.50;99.90;;;;;;4984214;28;20057;-46
2022/01/09 11:30:03;;;;;;;13.48;2.70;;;6.60;99.90;;;;;;4981020;28;20073;-45
2022/01/09 11:32:48;;;;;;;12.30;1.70;;;6.70;99.90;;;;;;4983937;28;20056;-43
2022/01/09 11:35:21;;;;;;;13.68;2.50;;;6.70;99.90;;;;;;4980872;28;20116;-44
2022/01/09 11:38:00;;;;;;;14.90;2.67;;;6.80;99.90;;;;;;4983382;28;20396;-43
2022/01/09 11:40:32;;;;;;;18.02;2.42;;;6.80;99.90;;;;;;4987015;28;20050;-44
2022/01/09 11:43:03;;;;;;;15.40;2.42;;;6.90;99.90;;;;;;4987182;28;20102;-45
2022/01/09 11:45:41;;;;;;;16.73;2.63;;;6.90;99.90;;;;;;4988022;28;20254;-43
2022/01/09 11:48:08;;;;;;;19.63;3.17;;;6.90;99.90;;;;;;4996989;28;20038;-44
2022/01/09 11:50:36;;;;;;;21.25;3.28;;;6.90;99.90;;;;;;4994984;28;20101;-42
2022/01/09 11:53:03;;;;;;;13.30;3.00;;;6.90;99.90;;;;;;4992648;28;20109;-46
2022/01/09 11:55:41;;;;;;;18.35;2.78;;;6.80;99.90;;;;;;4989165;28;20542;-43
2022/01/09 11:58:11;;;;;;;16.35;2.75;;;6.80;99.90;;;;;;4995822;28;20092;-44
2022/01/09 12:00:39;;;;;;;19.02;3.00;;;6.90;99.90;;;;;;4987918;28;20057;-45
2022/01/09 12:03:36;;;;;;;16.65;2.88;;;6.90;99.90;;;;;;4993001;28;20495;-45
2022/01/09 12:06:04;;;;;;;23.35;3.45;;;6.90;99.90;;;;;;4989684;28;20174;-45
2022/01/09 12:09:07;;;;;;;21.40;3.00;;;7.00;99.90;;;;;;4989181;28;20371;-43
2022/01/09 12:12:06;;;;;;;18.05;2.92;;;7.10;99.90;;;;;;4983471;28;20491;-44
2022/01/09 12:14:56;;;;;;;18.40;3.13;;;7.10;99.90;;;;;;4987073;28;20108;-47
2022/01/09 12:17:40;;;;;;;21.98;2.92;;;7.20;99.90;;;;;;4987747;28;20077;-47
2022/01/09 12:20:09;;;;;;;25.92;3.65;;;7.30;99.90;;;;;;4998180;28;20046;-47
2022/01/09 12:22:53;;;;;;;16.23;2.53;;;7.30;99.90;;;;;;4997079;28;20227;-44
2022/01/09 12:25:44;;;;;;;21.00;2.97;;;7.30;99.90;;;;;;4984990;28;20495;-44
2022/01/09 12:28:14;;;;;;;29.23;3.53;;;7.30;99.90;;;;;;4991246;28;20120;-48
2022/01/09 12:30:49;;;;;;;18.48;2.78;;;7.30;99.90;;;;;;4971656;28;20587;-48
2022/01/09 12:33:38;;;;;;;27.85;3.22;;;7.30;99.90;;;;;;4987526;28;20058;-47
2022/01/09 12:36:06;;;;;;;21.15;3.47;;;7.30;99.90;;;;;;4990590;28;20129;-42
2022/01/09 12:38:35;;;;;;;23.63;3.40;;;7.30;99.90;;;;;;4994506;28;20109;-41
2022/01/09 12:41:03;;;;;;;21.60;3.67;;;7.30;99.90;;;;;;4995628;28;20423;-44
2022/01/09 12:43:32;;;;;;;25.95;3.65;;;7.40;99.90;;;;;;4993654;28;20105;-47
2022/01/09 12:45:59;;;;;;;25.60;3.25;;;7.50;99.90;;;;;;4995532;28;20490;-47
2022/01/09 12:48:27;;;;;;;23.80;4.97;;;7.50;99.90;;;;;;4994508;28;20070;-44
2022/01/09 12:50:54;;;;;;;21.27;3.38;;;7.50;99.90;;;;;;4986104;28;20129;-45
2022/01/09 12:53:22;;;;;;;17.23;3.33;;;7.50;99.90;;;;;;4988236;28;20483;-44